Aviation Digital Data Service (ADDS)

Output produced by METARs form (2035 UTC 17 June 2019)
found at http://www.aviationweather.gov/metar/data/
 
METAR text: EIDW 172030Z 27005KT 9999 FEW026 BKN040 14/08 Q1012 NOSIG
Conditions at: EIDW (DUBLIN AIRPORT , IE) observed 2030 UTC 17 June 2019
Temperature: 14.0°C (57°F)
Dewpoint: 8.0°C (46°F) [RH = 67%]
Pressure (altimeter): 29.88 inches Hg (1012.0 mb)
Winds: from the W (270 degrees) at 6 MPH (5 knots; 2.6 m/s)
Visibility: 6 or more miles (10+ km)
Ceiling: 4000 feet AGL
Clouds: few clouds at 2600 feet AGL
broken clouds at 4000 feet AGL
Weather: no significant weather observed at this time

METAR text: EIDW 172000Z 24006KT 200V290 9999 FEW026 BKN080 15/08 Q1012 NOSIG
Conditions at: EIDW (DUBLIN AIRPORT , IE) observed 2000 UTC 17 June 2019
Temperature: 15.0°C (59°F)
Dewpoint: 8.0°C (46°F) [RH = 63%]
Pressure (altimeter): 29.88 inches Hg (1012.0 mb)
Winds: from the WSW (240 degrees) at 7 MPH (6 knots; 3.1 m/s)
Visibility: 6 or more miles (10+ km)
Ceiling: 8000 feet AGL
Clouds: few clouds at 2600 feet AGL
broken clouds at 8000 feet AGL
Weather: no significant weather observed at this time

METAR text: EIDW 171930Z 23006KT 160V270 9999 FEW026 BKN080 16/08 Q1011 NOSIG
Conditions at: EIDW (DUBLIN AIRPORT , IE) observed 1930 UTC 17 June 2019
Temperature: 16.0°C (61°F)
Dewpoint: 8.0°C (46°F) [RH = 59%]
Pressure (altimeter): 29.85 inches Hg (1011.0 mb)
Winds: from the SW (230 degrees) at 7 MPH (6 knots; 3.1 m/s)
Visibility: 6 or more miles (10+ km)
Ceiling: 8000 feet AGL
Clouds: few clouds at 2600 feet AGL
broken clouds at 8000 feet AGL
Weather: no significant weather observed at this time

METAR text: EIDW 171900Z 26009KT 230V290 9999 FEW026 BKN080 16/08 Q1011 NOSIG
Conditions at: EIDW (DUBLIN AIRPORT , IE) observed 1900 UTC 17 June 2019
Temperature: 16.0°C (61°F)
Dewpoint: 8.0°C (46°F) [RH = 59%]
Pressure (altimeter): 29.85 inches Hg (1011.0 mb)
Winds: from the W (260 degrees) at 10 MPH (9 knots; 4.6 m/s)
Visibility: 6 or more miles (10+ km)
Ceiling: 8000 feet AGL
Clouds: few clouds at 2600 feet AGL
broken clouds at 8000 feet AGL
Weather: no significant weather observed at this time

METAR text: EIDW 171830Z 25008KT 220V290 9999 FEW026 BKN080 17/08 Q1011 NOSIG
Conditions at: EIDW (DUBLIN AIRPORT , IE) observed 1830 UTC 17 June 2019
Temperature: 17.0°C (63°F)
Dewpoint: 8.0°C (46°F) [RH = 55%]
Pressure (altimeter): 29.85 inches Hg (1011.0 mb)
Winds: from the WSW (250 degrees) at 9 MPH (8 knots; 4.1 m/s)
Visibility: 6 or more miles (10+ km)
Ceiling: 8000 feet AGL
Clouds: few clouds at 2600 feet AGL
broken clouds at 8000 feet AGL
Weather: no significant weather observed at this time

METAR text: EIDW 171800Z 25009KT 210V280 9999 FEW022 SCT040 BKN080 16/09 Q1011 NOSIG
Conditions at: EIDW (DUBLIN AIRPORT , IE) observed 1800 UTC 17 June 2019
Temperature: 16.0°C (61°F)
Dewpoint: 9.0°C (48°F) [RH = 63%]
Pressure (altimeter): 29.85 inches Hg (1011.0 mb)
Winds: from the WSW (250 degrees) at 10 MPH (9 knots; 4.6 m/s)
Visibility: 6 or more miles (10+ km)
Ceiling: 8000 feet AGL
Clouds: few clouds at 2200 feet AGL
scattered clouds at 4000 feet AGL
broken clouds at 8000 feet AGL
Weather: no significant weather observed at this time

METAR text: EIDW 171730Z 25007KT 200V290 9999 FEW022 SCT044 BKN080 17/08 Q1011 NOSIG
Conditions at: EIDW (DUBLIN AIRPORT , IE) observed 1730 UTC 17 June 2019
Temperature: 17.0°C (63°F)
Dewpoint: 8.0°C (46°F) [RH = 55%]
Pressure (altimeter): 29.85 inches Hg (1011.0 mb)
Winds: from the WSW (250 degrees) at 8 MPH (7 knots; 3.6 m/s)
Visibility: 6 or more miles (10+ km)
Ceiling: 8000 feet AGL
Clouds: few clouds at 2200 feet AGL
scattered clouds at 4400 feet AGL
broken clouds at 8000 feet AGL
Weather: no significant weather observed at this time

METAR text: EIDW 171700Z 24010KT 190V290 9999 FEW022 SCT044 BKN080 17/08 Q1011 NOSIG
Conditions at: EIDW (DUBLIN AIRPORT , IE) observed 1700 UTC 17 June 2019
Temperature: 17.0°C (63°F)
Dewpoint: 8.0°C (46°F) [RH = 55%]
Pressure (altimeter): 29.85 inches Hg (1011.0 mb)
Winds: from the WSW (240 degrees) at 12 MPH (10 knots; 5.1 m/s)
Visibility: 6 or more miles (10+ km)
Ceiling: 8000 feet AGL
Clouds: few clouds at 2200 feet AGL
scattered clouds at 4400 feet AGL
broken clouds at 8000 feet AGL
Weather: no significant weather observed at this time

METAR text: EIDW 171630Z 24010KT 200V280 9999 SCT025 BKN080 18/08 Q1011 NOSIG
Conditions at: EIDW (DUBLIN AIRPORT , IE) observed 1630 UTC 17 June 2019
Temperature: 18.0°C (64°F)
Dewpoint: 8.0°C (46°F) [RH = 52%]
Pressure (altimeter): 29.85 inches Hg (1011.0 mb)
Winds: from the WSW (240 degrees) at 12 MPH (10 knots; 5.1 m/s)
Visibility: 6 or more miles (10+ km)
Ceiling: 8000 feet AGL
Clouds: scattered clouds at 2500 feet AGL
broken clouds at 8000 feet AGL
Weather: no significant weather observed at this time

METAR text: EIDW 171600Z 24009KT 170V290 9999 FEW022 SCT040 BKN080 18/09 Q1011 NOSIG
Conditions at: EIDW (DUBLIN AIRPORT , IE) observed 1600 UTC 17 June 2019
Temperature: 18.0°C (64°F)
Dewpoint: 9.0°C (48°F) [RH = 56%]
Pressure (altimeter): 29.85 inches Hg (1011.0 mb)
Winds: from the WSW (240 degrees) at 10 MPH (9 knots; 4.6 m/s)
Visibility: 6 or more miles (10+ km)
Ceiling: 8000 feet AGL
Clouds: few clouds at 2200 feet AGL
scattered clouds at 4000 feet AGL
broken clouds at 8000 feet AGL
Weather: no significant weather observed at this time

METAR text: EIDW 171530Z 23012KT 190V260 9999 SCT024 BKN080 17/08 Q1011 NOSIG
Conditions at: EIDW (DUBLIN AIRPORT , IE) observed 1530 UTC 17 June 2019
Temperature: 17.0°C (63°F)
Dewpoint: 8.0°C (46°F) [RH = 55%]
Pressure (altimeter): 29.85 inches Hg (1011.0 mb)
Winds: from the SW (230 degrees) at 14 MPH (12 knots; 6.2 m/s)
Visibility: 6 or more miles (10+ km)
Ceiling: 8000 feet AGL
Clouds: scattered clouds at 2400 feet AGL
broken clouds at 8000 feet AGL
Weather: no significant weather observed at this time

METAR text: EIDW 171500Z 25011KT 140V290 9999 FEW022 SCT050 BKN080 17/09 Q1011 NOSIG
Conditions at: EIDW (DUBLIN AIRPORT , IE) observed 1500 UTC 17 June 2019
Temperature: 17.0°C (63°F)
Dewpoint: 9.0°C (48°F) [RH = 59%]
Pressure (altimeter): 29.85 inches Hg (1011.0 mb)
Winds: from the WSW (250 degrees) at 13 MPH (11 knots; 5.7 m/s)
Visibility: 6 or more miles (10+ km)
Ceiling: 8000 feet AGL
Clouds: few clouds at 2200 feet AGL
scattered clouds at 5000 feet AGL
broken clouds at 8000 feet AGL
Weather: no significant weather observed at this time

METAR text: EIDW 171430Z 24010KT 200V280 9999 FEW023 SCT050 BKN080 17/09 Q1011 NOSIG
Conditions at: EIDW (DUBLIN AIRPORT , IE) observed 1430 UTC 17 June 2019
Temperature: 17.0°C (63°F)
Dewpoint: 9.0°C (48°F) [RH = 59%]
Pressure (altimeter): 29.85 inches Hg (1011.0 mb)
Winds: from the WSW (240 degrees) at 12 MPH (10 knots; 5.1 m/s)
Visibility: 6 or more miles (10+ km)
Ceiling: 8000 feet AGL
Clouds: few clouds at 2300 feet AGL
scattered clouds at 5000 feet AGL
broken clouds at 8000 feet AGL
Weather: no significant weather observed at this time

METAR text: EIDW 171400Z 25009KT 210V280 9999 FEW022CB BKN080 17/10 Q1011 NOSIG
Conditions at: EIDW (DUBLIN AIRPORT , IE) observed 1400 UTC 17 June 2019
Temperature: 17.0°C (63°F)
Dewpoint: 10.0°C (50°F) [RH = 63%]
Pressure (altimeter): 29.85 inches Hg (1011.0 mb)
Winds: from the WSW (250 degrees) at 10 MPH (9 knots; 4.6 m/s)
Visibility: 6 or more miles (10+ km)
Ceiling: 8000 feet AGL
Clouds: few clouds at 2200 feet AGL
broken clouds at 8000 feet AGL
Weather: no significant weather observed at this time

METAR text: EIDW 171330Z 25010KT 200V280 9999 -SHRA FEW020CB SCT038 BKN080 14/10 Q1011 NOSIG
Conditions at: EIDW (DUBLIN AIRPORT , IE) observed 1330 UTC 17 June 2019
Temperature: 14.0°C (57°F)
Dewpoint: 10.0°C (50°F) [RH = 77%]
Pressure (altimeter): 29.85 inches Hg (1011.0 mb)
Winds: from the WSW (250 degrees) at 12 MPH (10 knots; 5.1 m/s)
Visibility: 6 or more miles (10+ km)
Ceiling: 8000 feet AGL
Clouds: few clouds at 2000 feet AGL
scattered clouds at 3800 feet AGL
broken clouds at 8000 feet AGL
Weather: -SHRA  (light rain showers)

METAR text: EIDW 171300Z 23008G18KT 180V280 9999 FEW020CB SCT035 BKN060 17/11 Q1011 NOSIG
Conditions at: EIDW (DUBLIN AIRPORT , IE) observed 1300 UTC 17 June 2019
Temperature: 17.0°C (63°F)
Dewpoint: 11.0°C (52°F) [RH = 68%]
Pressure (altimeter): 29.85 inches Hg (1011.0 mb)
Winds: from the SW (230 degrees) at 9 MPH (8 knots; 4.1 m/s)
gusting to 21 MPH (18 knots; 9.3 m/s)
Visibility: 6 or more miles (10+ km)
Ceiling: 6000 feet AGL
Clouds: few clouds at 2000 feet AGL
scattered clouds at 3500 feet AGL
broken clouds at 6000 feet AGL
Weather: no significant weather observed at this time

METAR text: EIDW 171230Z 22010KT 190V260 9999 -SHRA FEW020CB SCT037 BKN060 14/10 Q1011 NOSIG
Conditions at: EIDW (DUBLIN AIRPORT , IE) observed 1230 UTC 17 June 2019
Temperature: 14.0°C (57°F)
Dewpoint: 10.0°C (50°F) [RH = 77%]
Pressure (altimeter): 29.85 inches Hg (1011.0 mb)
Winds: from the SW (220 degrees) at 12 MPH (10 knots; 5.1 m/s)
Visibility: 6 or more miles (10+ km)
Ceiling: 6000 feet AGL
Clouds: few clouds at 2000 feet AGL
scattered clouds at 3700 feet AGL
broken clouds at 6000 feet AGL
Weather: -SHRA  (light rain showers)

METAR text: EIDW 171200Z 23012G23KT 190V260 9999 -SHRA FEW020CB SCT035 BKN050 15/09 Q1010 NOSIG
Conditions at: EIDW (DUBLIN AIRPORT , IE) observed 1200 UTC 17 June 2019
Temperature: 15.0°C (59°F)
Dewpoint: 9.0°C (48°F) [RH = 67%]
Pressure (altimeter): 29.82 inches Hg (1010.0 mb)
Winds: from the SW (230 degrees) at 14 MPH (12 knots; 6.2 m/s)
gusting to 26 MPH (23 knots; 11.8 m/s)
Visibility: 6 or more miles (10+ km)
Ceiling: 5000 feet AGL
Clouds: few clouds at 2000 feet AGL
scattered clouds at 3500 feet AGL
broken clouds at 5000 feet AGL
Weather: -SHRA  (light rain showers)

METAR text: EIDW 171130Z 20012KT 160V250 9999 VCSH FEW022 SCT034 BKN042 16/08 Q1010 NOSIG
Conditions at: EIDW (DUBLIN AIRPORT , IE) observed 1130 UTC 17 June 2019
Temperature: 16.0°C (61°F)
Dewpoint: 8.0°C (46°F) [RH = 59%]
Pressure (altimeter): 29.82 inches Hg (1010.0 mb)
Winds: from the SSW (200 degrees) at 14 MPH (12 knots; 6.2 m/s)
Visibility: 6 or more miles (10+ km)
Ceiling: 4200 feet AGL
Clouds: few clouds at 2200 feet AGL
scattered clouds at 3400 feet AGL
broken clouds at 4200 feet AGL
Weather: VCSH  (showers in vicinity)

METAR text: EIDW 171100Z 22012KT 180V260 9999 VCSH FEW022 SCT033 BKN045 15/08 Q1010 NOSIG
Conditions at: EIDW (DUBLIN AIRPORT , IE) observed 1100 UTC 17 June 2019
Temperature: 15.0°C (59°F)
Dewpoint: 8.0°C (46°F) [RH = 63%]
Pressure (altimeter): 29.82 inches Hg (1010.0 mb)
Winds: from the SW (220 degrees) at 14 MPH (12 knots; 6.2 m/s)
Visibility: 6 or more miles (10+ km)
Ceiling: 4500 feet AGL
Clouds: few clouds at 2200 feet AGL
scattered clouds at 3300 feet AGL
broken clouds at 4500 feet AGL
Weather: VCSH  (showers in vicinity)

METAR text: EIDW 171030Z 21013KT 170V250 9999 VCSH FEW022 SCT032 BKN042 15/08 Q1010 NOSIG
Conditions at: EIDW (DUBLIN AIRPORT , IE) observed 1030 UTC 17 June 2019
Temperature: 15.0°C (59°F)
Dewpoint: 8.0°C (46°F) [RH = 63%]
Pressure (altimeter): 29.82 inches Hg (1010.0 mb)
Winds: from the SSW (210 degrees) at 15 MPH (13 knots; 6.7 m/s)
Visibility: 6 or more miles (10+ km)
Ceiling: 4200 feet AGL
Clouds: few clouds at 2200 feet AGL
scattered clouds at 3200 feet AGL
broken clouds at 4200 feet AGL
Weather: VCSH  (showers in vicinity)

METAR text: EIDW 171000Z 21012KT 170V250 9999 FEW022 SCT030 BKN050 15/08 Q1010 NOSIG
Conditions at: EIDW (DUBLIN AIRPORT , IE) observed 1000 UTC 17 June 2019
Temperature: 15.0°C (59°F)
Dewpoint: 8.0°C (46°F) [RH = 63%]
Pressure (altimeter): 29.82 inches Hg (1010.0 mb)
Winds: from the SSW (210 degrees) at 14 MPH (12 knots; 6.2 m/s)
Visibility: 6 or more miles (10+ km)
Ceiling: 5000 feet AGL
Clouds: few clouds at 2200 feet AGL
scattered clouds at 3000 feet AGL
broken clouds at 5000 feet AGL
Weather: no significant weather observed at this time

METAR text: EIDW 170930Z 22012KT 180V260 9999 FEW022 SCT026 BKN032 15/09 Q1010 NOSIG
Conditions at: EIDW (DUBLIN AIRPORT , IE) observed 0930 UTC 17 June 2019
Temperature: 15.0°C (59°F)
Dewpoint: 9.0°C (48°F) [RH = 67%]
Pressure (altimeter): 29.82 inches Hg (1010.0 mb)
Winds: from the SW (220 degrees) at 14 MPH (12 knots; 6.2 m/s)
Visibility: 6 or more miles (10+ km)
Ceiling: 3200 feet AGL
Clouds: few clouds at 2200 feet AGL
scattered clouds at 2600 feet AGL
broken clouds at 3200 feet AGL
Weather: no significant weather observed at this time

METAR text: EIDW 170900Z 22009KT 150V280 9999 FEW022 SCT025 BKN030 15/09 Q1010 NOSIG
Conditions at: EIDW (DUBLIN AIRPORT , IE) observed 0900 UTC 17 June 2019
Temperature: 15.0°C (59°F)
Dewpoint: 9.0°C (48°F) [RH = 67%]
Pressure (altimeter): 29.82 inches Hg (1010.0 mb)
Winds: from the SW (220 degrees) at 10 MPH (9 knots; 4.6 m/s)
Visibility: 6 or more miles (10+ km)
Ceiling: 3000 feet AGL
Clouds: few clouds at 2200 feet AGL
scattered clouds at 2500 feet AGL
broken clouds at 3000 feet AGL
Weather: no significant weather observed at this time

METAR text: EIDW 170830Z 23010KT 190V280 9999 FEW021 BKN023 BKN070 14/09 Q1010 NOSIG
Conditions at: EIDW (DUBLIN AIRPORT , IE) observed 0830 UTC 17 June 2019
Temperature: 14.0°C (57°F)
Dewpoint: 9.0°C (48°F) [RH = 72%]
Pressure (altimeter): 29.82 inches Hg (1010.0 mb)
Winds: from the SW (230 degrees) at 12 MPH (10 knots; 5.1 m/s)
Visibility: 6 or more miles (10+ km)
Ceiling: 2300 feet AGL
Clouds: few clouds at 2100 feet AGL
broken clouds at 2300 feet AGL
broken clouds at 7000 feet AGL
Weather: no significant weather observed at this time

METAR text: EIDW 170800Z 23011KT 180V270 9999 FEW021 SCT023 BKN250 14/10 Q1010 NOSIG
Conditions at: EIDW (DUBLIN AIRPORT , IE) observed 0800 UTC 17 June 2019
Temperature: 14.0°C (57°F)
Dewpoint: 10.0°C (50°F) [RH = 77%]
Pressure (altimeter): 29.82 inches Hg (1010.0 mb)
Winds: from the SW (230 degrees) at 13 MPH (11 knots; 5.7 m/s)
Visibility: 6 or more miles (10+ km)
Ceiling: 25000 feet AGL
Clouds: few clouds at 2100 feet AGL
scattered clouds at 2300 feet AGL
broken clouds at 25000 feet AGL
Weather: no significant weather observed at this time

METAR text: EIDW 170730Z 22010KT 180V270 9999 FEW019 BKN250 13/09 Q1010 NOSIG
Conditions at: EIDW (DUBLIN AIRPORT , IE) observed 0730 UTC 17 June 2019
Temperature: 13.0°C (55°F)
Dewpoint: 9.0°C (48°F) [RH = 77%]
Pressure (altimeter): 29.82 inches Hg (1010.0 mb)
Winds: from the SW (220 degrees) at 12 MPH (10 knots; 5.1 m/s)
Visibility: 6 or more miles (10+ km)
Ceiling: 25000 feet AGL
Clouds: few clouds at 1900 feet AGL
broken clouds at 25000 feet AGL
Weather: no significant weather observed at this time

METAR text: EIDW 170700Z 22009KT 170V290 9999 FEW018 SCT250 12/09 Q1010 NOSIG
Conditions at: EIDW (DUBLIN AIRPORT , IE) observed 0700 UTC 17 June 2019
Temperature: 12.0°C (54°F)
Dewpoint: 9.0°C (48°F) [RH = 82%]
Pressure (altimeter): 29.82 inches Hg (1010.0 mb)
Winds: from the SW (220 degrees) at 10 MPH (9 knots; 4.6 m/s)
Visibility: 6 or more miles (10+ km)
Ceiling: at least 12,000 feet AGL
Clouds: few clouds at 1800 feet AGL
scattered clouds at 25000 feet AGL
Weather: no significant weather observed at this time

METAR text: EIDW 170630Z 21010KT 180V250 9999 FEW018 SCT250 12/08 Q1010 NOSIG
Conditions at: EIDW (DUBLIN AIRPORT , IE) observed 0630 UTC 17 June 2019
Temperature: 12.0°C (54°F)
Dewpoint: 8.0°C (46°F) [RH = 76%]
Pressure (altimeter): 29.82 inches Hg (1010.0 mb)
Winds: from the SSW (210 degrees) at 12 MPH (10 knots; 5.1 m/s)
Visibility: 6 or more miles (10+ km)
Ceiling: at least 12,000 feet AGL
Clouds: few clouds at 1800 feet AGL
scattered clouds at 25000 feet AGL
Weather: no significant weather observed at this time

METAR text: EIDW 170600Z 21010KT 170V280 9999 FEW018 SCT060 12/08 Q1010 NOSIG
Conditions at: EIDW (DUBLIN AIRPORT , IE) observed 0600 UTC 17 June 2019
Temperature: 12.0°C (54°F)
Dewpoint: 8.0°C (46°F) [RH = 76%]
Pressure (altimeter): 29.82 inches Hg (1010.0 mb)
Winds: from the SSW (210 degrees) at 12 MPH (10 knots; 5.1 m/s)
Visibility: 6 or more miles (10+ km)
Ceiling: at least 12,000 feet AGL
Clouds: few clouds at 1800 feet AGL
scattered clouds at 6000 feet AGL
Weather: no significant weather observed at this time

METAR text: EIDW 170530Z 21008KT 160V250 9999 FEW018 SCT110 11/09 Q1010 NOSIG
Conditions at: EIDW (DUBLIN AIRPORT , IE) observed 0530 UTC 17 June 2019
Temperature: 11.0°C (52°F)
Dewpoint: 9.0°C (48°F) [RH = 87%]
Pressure (altimeter): 29.82 inches Hg (1010.0 mb)
Winds: from the SSW (210 degrees) at 9 MPH (8 knots; 4.1 m/s)
Visibility: 6 or more miles (10+ km)
Ceiling: at least 12,000 feet AGL
Clouds: few clouds at 1800 feet AGL
scattered clouds at 11000 feet AGL
Weather: no significant weather observed at this time

METAR text: EIDW 170500Z 21008KT 170V280 9999 FEW018 SCT110 11/08 Q1009 NOSIG
Conditions at: EIDW (DUBLIN AIRPORT , IE) observed 0500 UTC 17 June 2019
Temperature: 11.0°C (52°F)
Dewpoint: 8.0°C (46°F) [RH = 82%]
Pressure (altimeter): 29.79 inches Hg (1009.0 mb)
Winds: from the SSW (210 degrees) at 9 MPH (8 knots; 4.1 m/s)
Visibility: 6 or more miles (10+ km)
Ceiling: at least 12,000 feet AGL
Clouds: few clouds at 1800 feet AGL
scattered clouds at 11000 feet AGL
Weather: no significant weather observed at this time

METAR text: EIDW 170430Z 21005KT 170V240 9999 FEW018 SCT110 10/08 Q1009 NOSIG
Conditions at: EIDW (DUBLIN AIRPORT , IE) observed 0430 UTC 17 June 2019
Temperature: 10.0°C (50°F)
Dewpoint: 8.0°C (46°F) [RH = 87%]
Pressure (altimeter): 29.79 inches Hg (1009.0 mb)
Winds: from the SSW (210 degrees) at 6 MPH (5 knots; 2.6 m/s)
Visibility: 6 or more miles (10+ km)
Ceiling: at least 12,000 feet AGL
Clouds: few clouds at 1800 feet AGL
scattered clouds at 11000 feet AGL
Weather: no significant weather observed at this time

METAR text: EIDW 170400Z 21006KT 180V240 9999 FEW018 SCT250 10/08 Q1009 NOSIG
Conditions at: EIDW (DUBLIN AIRPORT , IE) observed 0400 UTC 17 June 2019
Temperature: 10.0°C (50°F)
Dewpoint: 8.0°C (46°F) [RH = 87%]
Pressure (altimeter): 29.79 inches Hg (1009.0 mb)
Winds: from the SSW (210 degrees) at 7 MPH (6 knots; 3.1 m/s)
Visibility: 6 or more miles (10+ km)
Ceiling: at least 12,000 feet AGL
Clouds: few clouds at 1800 feet AGL
scattered clouds at 25000 feet AGL
Weather: no significant weather observed at this time

METAR text: EIDW 170330Z 20006KT 140V350 9999 FEW025 SCT250 10/08 Q1009 NOSIG
Conditions at: EIDW (DUBLIN AIRPORT , IE) observed 0330 UTC 17 June 2019
Temperature: 10.0°C (50°F)
Dewpoint: 8.0°C (46°F) [RH = 87%]
Pressure (altimeter): 29.79 inches Hg (1009.0 mb)
Winds: from the SSW (200 degrees) at 7 MPH (6 knots; 3.1 m/s)
Visibility: 6 or more miles (10+ km)
Ceiling: at least 12,000 feet AGL
Clouds: few clouds at 2500 feet AGL
scattered clouds at 25000 feet AGL
Weather: no significant weather observed at this time

METAR text: EIDW 170300Z 21007KT 180V260 9999 FEW025 SCT250 10/08 Q1009 NOSIG
Conditions at: EIDW (DUBLIN AIRPORT , IE) observed 0300 UTC 17 June 2019
Temperature: 10.0°C (50°F)
Dewpoint: 8.0°C (46°F) [RH = 87%]
Pressure (altimeter): 29.79 inches Hg (1009.0 mb)
Winds: from the SSW (210 degrees) at 8 MPH (7 knots; 3.6 m/s)
Visibility: 6 or more miles (10+ km)
Ceiling: at least 12,000 feet AGL
Clouds: few clouds at 2500 feet AGL
scattered clouds at 25000 feet AGL
Weather: no significant weather observed at this time

METAR text: EIDW 170230Z 21006KT 170V250 9999 FEW025 SCT250 10/08 Q1009 NOSIG
Conditions at: EIDW (DUBLIN AIRPORT , IE) observed 0230 UTC 17 June 2019
Temperature: 10.0°C (50°F)
Dewpoint: 8.0°C (46°F) [RH = 87%]
Pressure (altimeter): 29.79 inches Hg (1009.0 mb)
Winds: from the SSW (210 degrees) at 7 MPH (6 knots; 3.1 m/s)
Visibility: 6 or more miles (10+ km)
Ceiling: at least 12,000 feet AGL
Clouds: few clouds at 2500 feet AGL
scattered clouds at 25000 feet AGL
Weather: no significant weather observed at this time

METAR text: EIDW 170200Z 21007KT 170V240 9999 FEW022 SCT250 10/08 Q1009 NOSIG
Conditions at: EIDW (DUBLIN AIRPORT , IE) observed 0200 UTC 17 June 2019
Temperature: 10.0°C (50°F)
Dewpoint: 8.0°C (46°F) [RH = 87%]
Pressure (altimeter): 29.79 inches Hg (1009.0 mb)
Winds: from the SSW (210 degrees) at 8 MPH (7 knots; 3.6 m/s)
Visibility: 6 or more miles (10+ km)
Ceiling: at least 12,000 feet AGL
Clouds: few clouds at 2200 feet AGL
scattered clouds at 25000 feet AGL
Weather: no significant weather observed at this time

METAR text: EIDW 170130Z 20007KT 160V240 9999 FEW022 SCT250 10/08 Q1009 NOSIG
Conditions at: EIDW (DUBLIN AIRPORT , IE) observed 0130 UTC 17 June 2019
Temperature: 10.0°C (50°F)
Dewpoint: 8.0°C (46°F) [RH = 87%]
Pressure (altimeter): 29.79 inches Hg (1009.0 mb)
Winds: from the SSW (200 degrees) at 8 MPH (7 knots; 3.6 m/s)
Visibility: 6 or more miles (10+ km)
Ceiling: at least 12,000 feet AGL
Clouds: few clouds at 2200 feet AGL
scattered clouds at 25000 feet AGL
Weather: no significant weather observed at this time

METAR text: EIDW 170100Z 21006KT 150V240 9999 FEW022 SCT250 11/09 Q1009 NOSIG
Conditions at: EIDW (DUBLIN AIRPORT , IE) observed 0100 UTC 17 June 2019
Temperature: 11.0°C (52°F)
Dewpoint: 9.0°C (48°F) [RH = 87%]
Pressure (altimeter): 29.79 inches Hg (1009.0 mb)
Winds: from the SSW (210 degrees) at 7 MPH (6 knots; 3.1 m/s)
Visibility: 6 or more miles (10+ km)
Ceiling: at least 12,000 feet AGL
Clouds: few clouds at 2200 feet AGL
scattered clouds at 25000 feet AGL
Weather: no significant weather observed at this time

METAR text: EIDW 170030Z 21004KT 150V260 9999 FEW022 SCT250 11/09 Q1009 NOSIG
Conditions at: EIDW (DUBLIN AIRPORT , IE) observed 0030 UTC 17 June 2019
Temperature: 11.0°C (52°F)
Dewpoint: 9.0°C (48°F) [RH = 87%]
Pressure (altimeter): 29.79 inches Hg (1009.0 mb)
Winds: from the SSW (210 degrees) at 5 MPH (4 knots; 2.1 m/s)
Visibility: 6 or more miles (10+ km)
Ceiling: at least 12,000 feet AGL
Clouds: few clouds at 2200 feet AGL
scattered clouds at 25000 feet AGL
Weather: no significant weather observed at this time

METAR text: EIDW 170000Z 22005KT 190V250 9999 FEW022 SCT250 11/09 Q1009 NOSIG
Conditions at: EIDW (DUBLIN AIRPORT , IE) observed 0000 UTC 17 June 2019
Temperature: 11.0°C (52°F)
Dewpoint: 9.0°C (48°F) [RH = 87%]
Pressure (altimeter): 29.79 inches Hg (1009.0 mb)
Winds: from the SW (220 degrees) at 6 MPH (5 knots; 2.6 m/s)
Visibility: 6 or more miles (10+ km)
Ceiling: at least 12,000 feet AGL
Clouds: few clouds at 2200 feet AGL
scattered clouds at 25000 feet AGL
Weather: no significant weather observed at this time

METAR text: EIDW 162330Z 21004KT 190V250 9999 FEW016 SCT044 11/09 Q1009 NOSIG
Conditions at: EIDW (DUBLIN AIRPORT , IE) observed 2330 UTC 16 June 2019
Temperature: 11.0°C (52°F)
Dewpoint: 9.0°C (48°F) [RH = 87%]
Pressure (altimeter): 29.79 inches Hg (1009.0 mb)
Winds: from the SSW (210 degrees) at 5 MPH (4 knots; 2.1 m/s)
Visibility: 6 or more miles (10+ km)
Ceiling: at least 12,000 feet AGL
Clouds: few clouds at 1600 feet AGL
scattered clouds at 4400 feet AGL
Weather: no significant weather observed at this time

METAR text: EIDW 162300Z 21007KT 170V240 9999 FEW016 SCT044 11/09 Q1009 NOSIG
Conditions at: EIDW (DUBLIN AIRPORT , IE) observed 2300 UTC 16 June 2019
Temperature: 11.0°C (52°F)
Dewpoint: 9.0°C (48°F) [RH = 87%]
Pressure (altimeter): 29.79 inches Hg (1009.0 mb)
Winds: from the SSW (210 degrees) at 8 MPH (7 knots; 3.6 m/s)
Visibility: 6 or more miles (10+ km)
Ceiling: at least 12,000 feet AGL
Clouds: few clouds at 1600 feet AGL
scattered clouds at 4400 feet AGL
Weather: no significant weather observed at this time

METAR text: EIDW 162230Z 22005KT 170V250 9999 FEW016 SCT044 11/09 Q1008 NOSIG
Conditions at: EIDW (DUBLIN AIRPORT , IE) observed 2230 UTC 16 June 2019
Temperature: 11.0°C (52°F)
Dewpoint: 9.0°C (48°F) [RH = 87%]
Pressure (altimeter): 29.76 inches Hg (1008.0 mb)
Winds: from the SW (220 degrees) at 6 MPH (5 knots; 2.6 m/s)
Visibility: 6 or more miles (10+ km)
Ceiling: at least 12,000 feet AGL
Clouds: few clouds at 1600 feet AGL
scattered clouds at 4400 feet AGL
Weather: no significant weather observed at this time

METAR text: EIDW 162200Z 23006KT 200V260 9999 FEW016 SCT044 12/09 Q1008 NOSIG
Conditions at: EIDW (DUBLIN AIRPORT , IE) observed 2200 UTC 16 June 2019
Temperature: 12.0°C (54°F)
Dewpoint: 9.0°C (48°F) [RH = 82%]
Pressure (altimeter): 29.76 inches Hg (1008.0 mb)
Winds: from the SW (230 degrees) at 7 MPH (6 knots; 3.1 m/s)
Visibility: 6 or more miles (10+ km)
Ceiling: at least 12,000 feet AGL
Clouds: few clouds at 1600 feet AGL
scattered clouds at 4400 feet AGL
Weather: no significant weather observed at this time

METAR text: EIDW 162130Z 23006KT 170V290 9999 FEW016 BKN044 12/09 Q1008 NOSIG
Conditions at: EIDW (DUBLIN AIRPORT , IE) observed 2130 UTC 16 June 2019
Temperature: 12.0°C (54°F)
Dewpoint: 9.0°C (48°F) [RH = 82%]
Pressure (altimeter): 29.76 inches Hg (1008.0 mb)
Winds: from the SW (230 degrees) at 7 MPH (6 knots; 3.1 m/s)
Visibility: 6 or more miles (10+ km)
Ceiling: 4400 feet AGL
Clouds: few clouds at 1600 feet AGL
broken clouds at 4400 feet AGL
Weather: no significant weather observed at this time

METAR text: EIDW 162100Z 21005KT 170V250 9999 FEW016 BKN044 12/11 Q1007 NOSIG
Conditions at: EIDW (DUBLIN AIRPORT , IE) observed 2100 UTC 16 June 2019
Temperature: 12.0°C (54°F)
Dewpoint: 11.0°C (52°F) [RH = 94%]
Pressure (altimeter): 29.73 inches Hg (1007.0 mb)
Winds: from the SSW (210 degrees) at 6 MPH (5 knots; 2.6 m/s)
Visibility: 6 or more miles (10+ km)
Ceiling: 4400 feet AGL
Clouds: few clouds at 1600 feet AGL
broken clouds at 4400 feet AGL
Weather: no significant weather observed at this time

METAR text: EIDW 162030Z 23005KT 190V290 9999 FEW012 SCT022 BKN060 12/11 Q1007 NOSIG
Conditions at: EIDW (DUBLIN AIRPORT , IE) observed 2030 UTC 16 June 2019
Temperature: 12.0°C (54°F)
Dewpoint: 11.0°C (52°F) [RH = 94%]
Pressure (altimeter): 29.73 inches Hg (1007.0 mb)
Winds: from the SW (230 degrees) at 6 MPH (5 knots; 2.6 m/s)
Visibility: 6 or more miles (10+ km)
Ceiling: 6000 feet AGL
Clouds: few clouds at 1200 feet AGL
scattered clouds at 2200 feet AGL
broken clouds at 6000 feet AGL
Weather: no significant weather observed at this time

METAR text: EIDW 162000Z 19006KT 150V230 9999 FEW012 SCT022 BKN060 13/11 Q1007 RESHRA NOSIG
Conditions at: EIDW (DUBLIN AIRPORT , IE) observed 2000 UTC 16 June 2019
Temperature: 13.0°C (55°F)
Dewpoint: 11.0°C (52°F) [RH = 88%]
Pressure (altimeter): 29.73 inches Hg (1007.0 mb)
Winds: from the S (190 degrees) at 7 MPH (6 knots; 3.1 m/s)
Visibility: 6 or more miles (10+ km)
Ceiling: 6000 feet AGL
Clouds: few clouds at 1200 feet AGL
scattered clouds at 2200 feet AGL
broken clouds at 6000 feet AGL
Weather: no significant weather observed at this time

METAR text: EIDW 161930Z 20007KT 170V250 9999 FEW018CB SCT028 BKN060 12/11 Q1006 WS RWY10 RESHRA NOSIG
Conditions at: EIDW (DUBLIN AIRPORT , IE) observed 1930 UTC 16 June 2019
Temperature: 12.0°C (54°F)
Dewpoint: 11.0°C (52°F) [RH = 94%]
Pressure (altimeter): 29.70 inches Hg (1006.0 mb)
Winds: from the SSW (200 degrees) at 8 MPH (7 knots; 3.6 m/s)
Visibility: 6 or more miles (10+ km)
Ceiling: 6000 feet AGL
Clouds: few clouds at 1800 feet AGL
scattered clouds at 2800 feet AGL
broken clouds at 6000 feet AGL
Weather: no significant weather observed at this time

METAR text: EIDW 161900Z 22009KT 190V260 9999 -SHRA FEW018CB SCT028 BKN060 12/10 Q1006 WS RWY10 BECMG 24015KT
Conditions at: EIDW (DUBLIN AIRPORT , IE) observed 1900 UTC 16 June 2019
Temperature: 12.0°C (54°F)
Dewpoint: 10.0°C (50°F) [RH = 88%]
Pressure (altimeter): 29.70 inches Hg (1006.0 mb)
Winds: from the SW (220 degrees) at 10 MPH (9 knots; 4.6 m/s)
Visibility: 6 or more miles (10+ km)
Ceiling: 6000 feet AGL
Clouds: few clouds at 1800 feet AGL
scattered clouds at 2800 feet AGL
broken clouds at 6000 feet AGL
Weather: -SHRA  (light rain showers)

METAR text: EIDW 161830Z 19014KT 170V240 9999 -SHRA SCT018CB BKN023 BKN060 15/11 Q1006 WS RWY10 BECMG 24015KT
Conditions at: EIDW (DUBLIN AIRPORT , IE) observed 1830 UTC 16 June 2019
Temperature: 15.0°C (59°F)
Dewpoint: 11.0°C (52°F) [RH = 77%]
Pressure (altimeter): 29.70 inches Hg (1006.0 mb)
Winds: from the S (190 degrees) at 16 MPH (14 knots; 7.2 m/s)
Visibility: 6 or more miles (10+ km)
Ceiling: 2300 feet AGL
Clouds: scattered clouds at 1800 feet AGL
broken clouds at 2300 feet AGL
broken clouds at 6000 feet AGL
Weather: -SHRA  (light rain showers)

METAR text: EIDW 161800Z 16010KT 130V210 9999 FEW020 BKN023 BKN060 15/11 Q1006 WS RWY10 NOSIG
Conditions at: EIDW (DUBLIN AIRPORT , IE) observed 1800 UTC 16 June 2019
Temperature: 15.0°C (59°F)
Dewpoint: 11.0°C (52°F) [RH = 77%]
Pressure (altimeter): 29.70 inches Hg (1006.0 mb)
Winds: from the SSE (160 degrees) at 12 MPH (10 knots; 5.1 m/s)
Visibility: 6 or more miles (10+ km)
Ceiling: 2300 feet AGL
Clouds: few clouds at 2000 feet AGL
broken clouds at 2300 feet AGL
broken clouds at 6000 feet AGL
Weather: no significant weather observed at this time

METAR text: EIDW 161730Z 17011KT 9999 FEW020 SCT028 BKN060 16/10 Q1006 NOSIG
Conditions at: EIDW (DUBLIN AIRPORT , IE) observed 1730 UTC 16 June 2019
Temperature: 16.0°C (61°F)
Dewpoint: 10.0°C (50°F) [RH = 68%]
Pressure (altimeter): 29.70 inches Hg (1006.0 mb)
Winds: from the S (170 degrees) at 13 MPH (11 knots; 5.7 m/s)
Visibility: 6 or more miles (10+ km)
Ceiling: 6000 feet AGL
Clouds: few clouds at 2000 feet AGL
scattered clouds at 2800 feet AGL
broken clouds at 6000 feet AGL
Weather: no significant weather observed at this time

METAR text: EIDW 161700Z 16013KT 130V190 9999 FEW020 SCT040 BKN060 15/10 Q1006 NOSIG
Conditions at: EIDW (DUBLIN AIRPORT , IE) observed 1700 UTC 16 June 2019
Temperature: 15.0°C (59°F)
Dewpoint: 10.0°C (50°F) [RH = 72%]
Pressure (altimeter): 29.70 inches Hg (1006.0 mb)
Winds: from the SSE (160 degrees) at 15 MPH (13 knots; 6.7 m/s)
Visibility: 6 or more miles (10+ km)
Ceiling: 6000 feet AGL
Clouds: few clouds at 2000 feet AGL
scattered clouds at 4000 feet AGL
broken clouds at 6000 feet AGL
Weather: no significant weather observed at this time

METAR text: EIDW 161630Z 16015KT 9999 VCSH FEW020 SCT040 BKN060 15/10 Q1007 NOSIG
Conditions at: EIDW (DUBLIN AIRPORT , IE) observed 1630 UTC 16 June 2019
Temperature: 15.0°C (59°F)
Dewpoint: 10.0°C (50°F) [RH = 72%]
Pressure (altimeter): 29.73 inches Hg (1007.0 mb)
Winds: from the SSE (160 degrees) at 17 MPH (15 knots; 7.7 m/s)
Visibility: 6 or more miles (10+ km)
Ceiling: 6000 feet AGL
Clouds: few clouds at 2000 feet AGL
scattered clouds at 4000 feet AGL
broken clouds at 6000 feet AGL
Weather: VCSH  (showers in vicinity)

METAR text: EIDW 161600Z 17013KT 110V210 9999 VCSH FEW020 SCT040 BKN060 16/09 Q1007 NOSIG
Conditions at: EIDW (DUBLIN AIRPORT , IE) observed 1600 UTC 16 June 2019
Temperature: 16.0°C (61°F)
Dewpoint: 9.0°C (48°F) [RH = 63%]
Pressure (altimeter): 29.73 inches Hg (1007.0 mb)
Winds: from the S (170 degrees) at 15 MPH (13 knots; 6.7 m/s)
Visibility: 6 or more miles (10+ km)
Ceiling: 6000 feet AGL
Clouds: few clouds at 2000 feet AGL
scattered clouds at 4000 feet AGL
broken clouds at 6000 feet AGL
Weather: VCSH  (showers in vicinity)

METAR text: EIDW 161530Z 17006KT 120V210 9999 -SHRA FEW022 SCT040 BKN060 16/08 Q1007 NOSIG
Conditions at: EIDW (DUBLIN AIRPORT , IE) observed 1530 UTC 16 June 2019
Temperature: 16.0°C (61°F)
Dewpoint: 8.0°C (46°F) [RH = 59%]
Pressure (altimeter): 29.73 inches Hg (1007.0 mb)
Winds: from the S (170 degrees) at 7 MPH (6 knots; 3.1 m/s)
Visibility: 6 or more miles (10+ km)
Ceiling: 6000 feet AGL
Clouds: few clouds at 2200 feet AGL
scattered clouds at 4000 feet AGL
broken clouds at 6000 feet AGL
Weather: -SHRA  (light rain showers)

METAR text: EIDW 161500Z 11007KT 090V160 9999 FEW024 SCT070 BKN120 15/11 Q1008 NOSIG
Conditions at: EIDW (DUBLIN AIRPORT , IE) observed 1500 UTC 16 June 2019
Temperature: 15.0°C (59°F)
Dewpoint: 11.0°C (52°F) [RH = 77%]
Pressure (altimeter): 29.76 inches Hg (1008.0 mb)
Winds: from the ESE (110 degrees) at 8 MPH (7 knots; 3.6 m/s)
Visibility: 6 or more miles (10+ km)
Ceiling: 12000 feet AGL
Clouds: few clouds at 2400 feet AGL
scattered clouds at 7000 feet AGL
broken clouds at 12000 feet AGL
Weather: no significant weather observed at this time

METAR text: EIDW 161430Z 13008KT 100V190 9999 FEW024 SCT070 16/10 Q1008 NOSIG
Conditions at: EIDW (DUBLIN AIRPORT , IE) observed 1430 UTC 16 June 2019
Temperature: 16.0°C (61°F)
Dewpoint: 10.0°C (50°F) [RH = 68%]
Pressure (altimeter): 29.76 inches Hg (1008.0 mb)
Winds: from the SE (130 degrees) at 9 MPH (8 knots; 4.1 m/s)
Visibility: 6 or more miles (10+ km)
Ceiling: at least 12,000 feet AGL
Clouds: few clouds at 2400 feet AGL
scattered clouds at 7000 feet AGL
Weather: no significant weather observed at this time

METAR text: EIDW 161400Z 13008KT 090V160 9999 FEW024 BKN060 15/10 Q1008 NOSIG
Conditions at: EIDW (DUBLIN AIRPORT , IE) observed 1400 UTC 16 June 2019
Temperature: 15.0°C (59°F)
Dewpoint: 10.0°C (50°F) [RH = 72%]
Pressure (altimeter): 29.76 inches Hg (1008.0 mb)
Winds: from the SE (130 degrees) at 9 MPH (8 knots; 4.1 m/s)
Visibility: 6 or more miles (10+ km)
Ceiling: 6000 feet AGL
Clouds: few clouds at 2400 feet AGL
broken clouds at 6000 feet AGL
Weather: no significant weather observed at this time

METAR text: EIDW 161330Z 16010KT 120V190 9999 SCT024 SCT060 15/09 Q1008 NOSIG
Conditions at: EIDW (DUBLIN AIRPORT , IE) observed 1330 UTC 16 June 2019
Temperature: 15.0°C (59°F)
Dewpoint: 9.0°C (48°F) [RH = 67%]
Pressure (altimeter): 29.76 inches Hg (1008.0 mb)
Winds: from the SSE (160 degrees) at 12 MPH (10 knots; 5.1 m/s)
Visibility: 6 or more miles (10+ km)
Ceiling: at least 12,000 feet AGL
Clouds: scattered clouds at 2400 feet AGL
scattered clouds at 6000 feet AGL
Weather: no significant weather observed at this time

METAR text: EIDW 161300Z 16004KT 110V240 9999 FEW024 16/08 Q1008 NOSIG
Conditions at: EIDW (DUBLIN AIRPORT , IE) observed 1300 UTC 16 June 2019
Temperature: 16.0°C (61°F)
Dewpoint: 8.0°C (46°F) [RH = 59%]
Pressure (altimeter): 29.76 inches Hg (1008.0 mb)
Winds: from the SSE (160 degrees) at 5 MPH (4 knots; 2.1 m/s)
Visibility: 6 or more miles (10+ km)
Ceiling: at least 12,000 feet AGL
Clouds: few clouds at 2400 feet AGL
Weather: no significant weather observed at this time

METAR text: EIDW 161230Z 20004KT 140V270 9999 SCT022 SCT250 16/09 Q1009 NOSIG
Conditions at: EIDW (DUBLIN AIRPORT , IE) observed 1230 UTC 16 June 2019
Temperature: 16.0°C (61°F)
Dewpoint: 9.0°C (48°F) [RH = 63%]
Pressure (altimeter): 29.79 inches Hg (1009.0 mb)
Winds: from the SSW (200 degrees) at 5 MPH (4 knots; 2.1 m/s)
Visibility: 6 or more miles (10+ km)
Ceiling: at least 12,000 feet AGL
Clouds: scattered clouds at 2200 feet AGL
scattered clouds at 25000 feet AGL
Weather: no significant weather observed at this time

METAR text: EIDW 161200Z 13006KT 100V170 9999 FEW022 BKN250 15/08 Q1009 NOSIG
Conditions at: EIDW (DUBLIN AIRPORT , IE) observed 1200 UTC 16 June 2019
Temperature: 15.0°C (59°F)
Dewpoint: 8.0°C (46°F) [RH = 63%]
Pressure (altimeter): 29.79 inches Hg (1009.0 mb)
Winds: from the SE (130 degrees) at 7 MPH (6 knots; 3.1 m/s)
Visibility: 6 or more miles (10+ km)
Ceiling: 25000 feet AGL
Clouds: few clouds at 2200 feet AGL
broken clouds at 25000 feet AGL
Weather: no significant weather observed at this time

METAR text: EIDW 161130Z 12004KT 050V190 9999 VCSH SCT022 SCT050 15/09 Q1008 NOSIG
Conditions at: EIDW (DUBLIN AIRPORT , IE) observed 1130 UTC 16 June 2019
Temperature: 15.0°C (59°F)
Dewpoint: 9.0°C (48°F) [RH = 67%]
Pressure (altimeter): 29.76 inches Hg (1008.0 mb)
Winds: from the ESE (120 degrees) at 5 MPH (4 knots; 2.1 m/s)
Visibility: 6 or more miles (10+ km)
Ceiling: at least 12,000 feet AGL
Clouds: scattered clouds at 2200 feet AGL
scattered clouds at 5000 feet AGL
Weather: VCSH  (showers in vicinity)

METAR text: EIDW 161100Z VRB03KT 9999 VCSH FEW020 SCT045 BKN080 14/07 Q1009 NOSIG
Conditions at: EIDW (DUBLIN AIRPORT , IE) observed 1100 UTC 16 June 2019
Temperature: 14.0°C (57°F)
Dewpoint: 7.0°C (45°F) [RH = 63%]
Pressure (altimeter): 29.79 inches Hg (1009.0 mb)
Winds: variable direction winds at 3 MPH (3 knots; 1.5 m/s)
Visibility: 6 or more miles (10+ km)
Ceiling: 8000 feet AGL
Clouds: few clouds at 2000 feet AGL
scattered clouds at 4500 feet AGL
broken clouds at 8000 feet AGL
Weather: VCSH  (showers in vicinity)

METAR text: EIDW 161030Z 14005KT 070V200 9999 VCSH FEW022 SCT045 BKN060 14/07 Q1009 NOSIG
Conditions at: EIDW (DUBLIN AIRPORT , IE) observed 1030 UTC 16 June 2019
Temperature: 14.0°C (57°F)
Dewpoint: 7.0°C (45°F) [RH = 63%]
Pressure (altimeter): 29.79 inches Hg (1009.0 mb)
Winds: from the SE (140 degrees) at 6 MPH (5 knots; 2.6 m/s)
Visibility: 6 or more miles (10+ km)
Ceiling: 6000 feet AGL
Clouds: few clouds at 2200 feet AGL
scattered clouds at 4500 feet AGL
broken clouds at 6000 feet AGL
Weather: VCSH  (showers in vicinity)

METAR text: EIDW 161000Z 12004KT 070V240 9999 -SHRA FEW022 SCT045 BKN070 14/08 Q1009 NOSIG
Conditions at: EIDW (DUBLIN AIRPORT , IE) observed 1000 UTC 16 June 2019
Temperature: 14.0°C (57°F)
Dewpoint: 8.0°C (46°F) [RH = 67%]
Pressure (altimeter): 29.79 inches Hg (1009.0 mb)
Winds: from the ESE (120 degrees) at 5 MPH (4 knots; 2.1 m/s)
Visibility: 6 or more miles (10+ km)
Ceiling: 7000 feet AGL
Clouds: few clouds at 2200 feet AGL
scattered clouds at 4500 feet AGL
broken clouds at 7000 feet AGL
Weather: -SHRA  (light rain showers)

METAR text: EIDW 160930Z 11005KT 9999 -SHRA FEW022 SCT045 BKN070 13/06 Q1009 NOSIG
Conditions at: EIDW (DUBLIN AIRPORT , IE) observed 0930 UTC 16 June 2019
Temperature: 13.0°C (55°F)
Dewpoint: 6.0°C (43°F) [RH = 62%]
Pressure (altimeter): 29.79 inches Hg (1009.0 mb)
Winds: from the ESE (110 degrees) at 6 MPH (5 knots; 2.6 m/s)
Visibility: 6 or more miles (10+ km)
Ceiling: 7000 feet AGL
Clouds: few clouds at 2200 feet AGL
scattered clouds at 4500 feet AGL
broken clouds at 7000 feet AGL
Weather: -SHRA  (light rain showers)

METAR text: EIDW 160900Z VRB03KT 9999 FEW022 SCT045 BKN070 13/06 Q1009 NOSIG
Conditions at: EIDW (DUBLIN AIRPORT , IE) observed 0900 UTC 16 June 2019
Temperature: 13.0°C (55°F)
Dewpoint: 6.0°C (43°F) [RH = 62%]
Pressure (altimeter): 29.79 inches Hg (1009.0 mb)
Winds: variable direction winds at 3 MPH (3 knots; 1.5 m/s)
Visibility: 6 or more miles (10+ km)
Ceiling: 7000 feet AGL
Clouds: few clouds at 2200 feet AGL
scattered clouds at 4500 feet AGL
broken clouds at 7000 feet AGL
Weather: no significant weather observed at this time

Forecast for: EIDW (DUBLIN AIRPORT , IE)
Text: TAF EIDW 171700Z 1718/1818 24007KT 9999 FEW020 SCT040
Forecast period: 1800 UTC 17 June 2019 to 1100 UTC 18 June 2019
Forecast type: FROM: standard forecast or significant change
Winds: from the WSW (240 degrees) at 8 MPH (7 knots; 3.6 m/s)
Visibility: 6 or more miles 10+ km)
Ceiling: at least 12,000 feet AGL
Clouds: few clouds at 2000 feet AGL
scattered clouds at 4000 feet AGL
Weather: no significant weather forecast for this period
Text: BECMG 1811/1813 14012KT
Forecast period: 1100 to 1800 UTC 18 June 2019
Forecast type: BECOMING: Conditions expected to become as follows by 1300 UTC 18 June 2019
Winds: from the SE (140 degrees) at 14 MPH (12 knots; 6.2 m/s)
Visibility: 6 or more miles 10+ km)
Ceiling: at least 12,000 feet AGL
Clouds: few clouds at 2000 feet AGL
scattered clouds at 4000 feet AGL
Weather: no significant weather forecast for this period